sensor_id;sensor_type;location;lat;lon;timestamp;P1;durP1;ratioP1;P2;durP2;ratioP2
54271;SDS011;40184;53.362;5.216;2023-04-29T00:01:18;29.35;;;17.05;;
54271;SDS011;40184;53.362;5.216;2023-04-29T00:03:44;24.58;;;15.85;;
54271;SDS011;40184;53.362;5.216;2023-04-29T00:06:09;28.75;;;16.98;;
54271;SDS011;40184;53.362;5.216;2023-04-29T00:08:38;28.38;;;16.50;;
54271;SDS011;40184;53.362;5.216;2023-04-29T00:11:04;25.98;;;16.20;;
54271;SDS011;40184;53.362;5.216;2023-04-29T00:13:30;22.70;;;15.68;;
54271;SDS011;40184;53.362;5.216;2023-04-29T00:15:55;33.50;;;16.60;;
54271;SDS011;40184;53.362;5.216;2023-04-29T00:18:21;28.85;;;16.42;;
54271;SDS011;40184;53.362;5.216;2023-04-29T00:20:47;27.45;;;15.98;;
54271;SDS011;40184;53.362;5.216;2023-04-29T00:23:12;22.17;;;14.80;;
54271;SDS011;40184;53.362;5.216;2023-04-29T00:25:38;29.50;;;15.85;;
54271;SDS011;40184;53.362;5.216;2023-04-29T00:28:04;27.27;;;16.38;;
54271;SDS011;40184;53.362;5.216;2023-04-29T00:30:30;25.25;;;16.15;;
54271;SDS011;40184;53.362;5.216;2023-04-29T00:32:57;31.65;;;16.42;;
54271;SDS011;40184;53.362;5.216;2023-04-29T00:35:23;28.55;;;17.13;;
54271;SDS011;40184;53.362;5.216;2023-04-29T00:37:48;28.45;;;16.98;;
54271;SDS011;40184;53.362;5.216;2023-04-29T00:40:14;21.65;;;15.82;;
54271;SDS011;40184;53.362;5.216;2023-04-29T00:42:40;27.38;;;15.63;;
54271;SDS011;40184;53.362;5.216;2023-04-29T00:45:07;28.00;;;15.23;;
54271;SDS011;40184;53.362;5.216;2023-04-29T00:47:33;24.55;;;14.85;;
54271;SDS011;40184;53.362;5.216;2023-04-29T00:49:59;29.27;;;14.85;;
54271;SDS011;40184;53.362;5.216;2023-04-29T00:52:25;32.72;;;13.90;;
54271;SDS011;40184;53.362;5.216;2023-04-29T00:54:54;25.40;;;15.80;;
54271;SDS011;40184;53.362;5.216;2023-04-29T00:57:20;32.65;;;15.30;;
54271;SDS011;40184;53.362;5.216;2023-04-29T00:59:47;29.50;;;15.68;;
54271;SDS011;40184;53.362;5.216;2023-04-29T01:02:14;32.30;;;16.42;;
54271;SDS011;40184;53.362;5.216;2023-04-29T01:04:41;35.15;;;16.00;;
54271;SDS011;40184;53.362;5.216;2023-04-29T01:07:18;27.77;;;17.52;;
54271;SDS011;40184;53.362;5.216;2023-04-29T01:12:38;25.20;;;16.60;;
54271;SDS011;40184;53.362;5.216;2023-04-29T01:17:43;34.75;;;17.60;;
54271;SDS011;40184;53.362;5.216;2023-04-29T01:20:12;37.70;;;16.50;;
54271;SDS011;40184;53.362;5.216;2023-04-29T01:22:39;33.42;;;18.00;;
54271;SDS011;40184;53.362;5.216;2023-04-29T01:25:05;34.42;;;17.40;;
54271;SDS011;40184;53.362;5.216;2023-04-29T01:38:29;32.30;;;16.75;;
54271;SDS011;40184;53.362;5.216;2023-04-29T01:41:15;36.30;;;17.25;;
54271;SDS011;40184;53.362;5.216;2023-04-29T01:43:46;38.13;;;17.38;;
54271;SDS011;40184;53.362;5.216;2023-04-29T01:46:15;34.22;;;15.55;;
54271;SDS011;40184;53.362;5.216;2023-04-29T01:48:43;26.88;;;14.77;;
54271;SDS011;40184;53.362;5.216;2023-04-29T01:51:09;25.33;;;14.30;;
54271;SDS011;40184;53.362;5.216;2023-04-29T01:53:35;29.95;;;15.30;;
54271;SDS011;40184;53.362;5.216;2023-04-29T01:56:01;33.85;;;16.25;;
54271;SDS011;40184;53.362;5.216;2023-04-29T01:58:26;25.33;;;15.43;;
54271;SDS011;40184;53.362;5.216;2023-04-29T02:00:53;34.90;;;15.48;;
54271;SDS011;40184;53.362;5.216;2023-04-29T02:03:19;31.15;;;14.93;;
54271;SDS011;40184;53.362;5.216;2023-04-29T02:05:45;31.25;;;15.65;;
54271;SDS011;40184;53.362;5.216;2023-04-29T02:08:10;31.92;;;15.55;;
54271;SDS011;40184;53.362;5.216;2023-04-29T02:10:36;30.50;;;14.38;;
54271;SDS011;40184;53.362;5.216;2023-04-29T02:13:02;31.48;;;15.85;;
54271;SDS011;40184;53.362;5.216;2023-04-29T02:15:28;39.85;;;16.05;;
54271;SDS011;40184;53.362;5.216;2023-04-29T02:17:53;34.05;;;15.45;;
54271;SDS011;40184;53.362;5.216;2023-04-29T02:20:19;35.83;;;14.95;;
54271;SDS011;40184;53.362;5.216;2023-04-29T02:22:45;25.45;;;13.43;;
54271;SDS011;40184;53.362;5.216;2023-04-29T02:25:11;34.33;;;15.02;;
54271;SDS011;40184;53.362;5.216;2023-04-29T02:27:37;35.45;;;16.75;;
54271;SDS011;40184;53.362;5.216;2023-04-29T02:30:02;41.30;;;15.27;;
54271;SDS011;40184;53.362;5.216;2023-04-29T02:32:29;33.30;;;16.10;;
54271;SDS011;40184;53.362;5.216;2023-04-29T02:34:55;28.25;;;14.90;;
54271;SDS011;40184;53.362;5.216;2023-04-29T02:37:22;42.15;;;16.38;;
54271;SDS011;40184;53.362;5.216;2023-04-29T02:39:47;39.03;;;18.05;;
54271;SDS011;40184;53.362;5.216;2023-04-29T02:42:13;35.95;;;17.42;;
54271;SDS011;40184;53.362;5.216;2023-04-29T02:44:39;38.28;;;17.15;;
54271;SDS011;40184;53.362;5.216;2023-04-29T02:47:05;41.63;;;20.45;;
54271;SDS011;40184;53.362;5.216;2023-04-29T02:49:31;36.92;;;17.13;;
54271;SDS011;40184;53.362;5.216;2023-04-29T02:51:56;31.30;;;18.08;;
54271;SDS011;40184;53.362;5.216;2023-04-29T02:54:22;34.35;;;16.75;;
54271;SDS011;40184;53.362;5.216;2023-04-29T02:56:48;39.38;;;18.38;;
54271;SDS011;40184;53.362;5.216;2023-04-29T02:59:14;41.15;;;17.05;;
54271;SDS011;40184;53.362;5.216;2023-04-29T03:01:40;34.88;;;16.98;;
54271;SDS011;40184;53.362;5.216;2023-04-29T03:04:05;39.45;;;16.48;;
54271;SDS011;40184;53.362;5.216;2023-04-29T03:06:31;27.75;;;14.07;;
54271;SDS011;40184;53.362;5.216;2023-04-29T03:08:57;27.50;;;14.07;;
54271;SDS011;40184;53.362;5.216;2023-04-29T03:11:23;33.00;;;14.05;;
54271;SDS011;40184;53.362;5.216;2023-04-29T03:13:49;29.98;;;14.15;;
54271;SDS011;40184;53.362;5.216;2023-04-29T03:16:15;27.92;;;12.80;;
54271;SDS011;40184;53.362;5.216;2023-04-29T03:18:41;32.15;;;12.40;;
54271;SDS011;40184;53.362;5.216;2023-04-29T03:21:07;27.08;;;12.98;;
54271;SDS011;40184;53.362;5.216;2023-04-29T03:23:33;26.40;;;11.48;;
54271;SDS011;40184;53.362;5.216;2023-04-29T03:25:58;27.85;;;12.38;;
54271;SDS011;40184;53.362;5.216;2023-04-29T03:28:25;35.78;;;12.07;;
54271;SDS011;40184;53.362;5.216;2023-04-29T03:30:51;27.75;;;9.73;;
54271;SDS011;40184;53.362;5.216;2023-04-29T03:33:17;24.30;;;9.20;;
54271;SDS011;40184;53.362;5.216;2023-04-29T03:35:42;28.42;;;11.15;;
54271;SDS011;40184;53.362;5.216;2023-04-29T03:38:09;24.30;;;8.68;;
54271;SDS011;40184;53.362;5.216;2023-04-29T03:40:35;26.55;;;8.63;;
54271;SDS011;40184;53.362;5.216;2023-04-29T03:43:01;23.88;;;8.95;;
54271;SDS011;40184;53.362;5.216;2023-04-29T03:45:27;24.33;;;8.07;;
54271;SDS011;40184;53.362;5.216;2023-04-29T03:47:53;27.75;;;9.63;;
54271;SDS011;40184;53.362;5.216;2023-04-29T03:50:19;23.67;;;9.57;;
54271;SDS011;40184;53.362;5.216;2023-04-29T03:52:45;21.10;;;8.25;;
54271;SDS011;40184;53.362;5.216;2023-04-29T03:55:10;19.55;;;8.18;;
54271;SDS011;40184;53.362;5.216;2023-04-29T03:57:36;20.50;;;8.05;;
54271;SDS011;40184;53.362;5.216;2023-04-29T04:00:03;25.77;;;9.70;;
54271;SDS011;40184;53.362;5.216;2023-04-29T04:02:29;24.98;;;9.63;;
54271;SDS011;40184;53.362;5.216;2023-04-29T04:04:55;18.55;;;7.85;;
54271;SDS011;40184;53.362;5.216;2023-04-29T04:07:20;24.83;;;8.13;;
54271;SDS011;40184;53.362;5.216;2023-04-29T04:09:46;17.95;;;6.78;;
54271;SDS011;40184;53.362;5.216;2023-04-29T04:12:12;14.60;;;7.85;;
54271;SDS011;40184;53.362;5.216;2023-04-29T04:14:37;19.60;;;6.80;;
54271;SDS011;40184;53.362;5.216;2023-04-29T04:17:03;18.63;;;6.85;;
54271;SDS011;40184;53.362;5.216;2023-04-29T04:19:29;15.80;;;6.57;;
54271;SDS011;40184;53.362;5.216;2023-04-29T04:21:55;22.02;;;7.68;;
54271;SDS011;40184;53.362;5.216;2023-04-29T04:24:21;22.02;;;7.40;;
54271;SDS011;40184;53.362;5.216;2023-04-29T04:26:47;20.05;;;7.68;;
54271;SDS011;40184;53.362;5.216;2023-04-29T04:29:12;18.45;;;7.00;;
54271;SDS011;40184;53.362;5.216;2023-04-29T04:31:38;21.70;;;7.07;;
54271;SDS011;40184;53.362;5.216;2023-04-29T04:34:04;15.93;;;6.82;;
54271;SDS011;40184;53.362;5.216;2023-04-29T04:36:29;19.45;;;7.85;;
54271;SDS011;40184;53.362;5.216;2023-04-29T04:38:56;20.48;;;8.25;;
54271;SDS011;40184;53.362;5.216;2023-04-29T04:41:22;26.95;;;8.85;;
54271;SDS011;40184;53.362;5.216;2023-04-29T04:43:48;22.00;;;8.60;;
54271;SDS011;40184;53.362;5.216;2023-04-29T04:46:14;20.83;;;7.28;;
54271;SDS011;40184;53.362;5.216;2023-04-29T04:48:41;21.23;;;8.52;;
54271;SDS011;40184;53.362;5.216;2023-04-29T04:51:10;19.23;;;9.15;;
54271;SDS011;40184;53.362;5.216;2023-04-29T04:53:37;18.08;;;7.40;;
54271;SDS011;40184;53.362;5.216;2023-04-29T04:56:03;20.08;;;8.63;;
54271;SDS011;40184;53.362;5.216;2023-04-29T04:58:31;17.45;;;7.15;;
54271;SDS011;40184;53.362;5.216;2023-04-29T05:00:57;15.93;;;7.55;;
54271;SDS011;40184;53.362;5.216;2023-04-29T05:03:26;21.23;;;8.13;;
54271;SDS011;40184;53.362;5.216;2023-04-29T05:05:52;16.15;;;7.55;;
54271;SDS011;40184;53.362;5.216;2023-04-29T05:08:19;24.92;;;7.05;;
54271;SDS011;40184;53.362;5.216;2023-04-29T05:10:44;16.67;;;6.88;;
54271;SDS011;40184;53.362;5.216;2023-04-29T05:13:10;14.52;;;6.43;;
54271;SDS011;40184;53.362;5.216;2023-04-29T05:15:36;12.02;;;5.60;;
54271;SDS011;40184;53.362;5.216;2023-04-29T05:18:01;20.02;;;6.63;;
54271;SDS011;40184;53.362;5.216;2023-04-29T05:20:27;19.08;;;6.28;;
54271;SDS011;40184;53.362;5.216;2023-04-29T05:22:53;19.50;;;6.38;;
54271;SDS011;40184;53.362;5.216;2023-04-29T05:25:19;16.42;;;5.65;;
54271;SDS011;40184;53.362;5.216;2023-04-29T05:27:44;13.70;;;6.45;;
54271;SDS011;40184;53.362;5.216;2023-04-29T05:30:10;11.95;;;5.30;;
54271;SDS011;40184;53.362;5.216;2023-04-29T05:32:36;19.45;;;6.40;;
54271;SDS011;40184;53.362;5.216;2023-04-29T05:35:02;18.02;;;6.78;;
54271;SDS011;40184;53.362;5.216;2023-04-29T05:37:27;15.45;;;6.93;;
54271;SDS011;40184;53.362;5.216;2023-04-29T05:39:56;21.05;;;6.05;;
54271;SDS011;40184;53.362;5.216;2023-04-29T05:42:22;10.73;;;5.50;;
54271;SDS011;40184;53.362;5.216;2023-04-29T05:44:48;24.30;;;7.82;;
54271;SDS011;40184;53.362;5.216;2023-04-29T05:47:14;14.00;;;5.95;;
54271;SDS011;40184;53.362;5.216;2023-04-29T05:49:40;17.45;;;6.57;;
54271;SDS011;40184;53.362;5.216;2023-04-29T05:52:05;12.48;;;5.60;;
54271;SDS011;40184;53.362;5.216;2023-04-29T05:54:32;13.32;;;5.85;;
54271;SDS011;40184;53.362;5.216;2023-04-29T05:56:58;14.65;;;6.38;;
54271;SDS011;40184;53.362;5.216;2023-04-29T05:59:27;16.08;;;7.32;;
54271;SDS011;40184;53.362;5.216;2023-04-29T06:01:53;16.55;;;6.60;;
54271;SDS011;40184;53.362;5.216;2023-04-29T06:04:20;10.23;;;5.38;;
54271;SDS011;40184;53.362;5.216;2023-04-29T06:06:46;14.30;;;5.65;;
54271;SDS011;40184;53.362;5.216;2023-04-29T06:09:12;13.68;;;5.35;;
54271;SDS011;40184;53.362;5.216;2023-04-29T06:11:39;16.25;;;5.53;;
54271;SDS011;40184;53.362;5.216;2023-04-29T06:14:05;7.70;;;4.72;;
54271;SDS011;40184;53.362;5.216;2023-04-29T06:16:31;10.43;;;5.43;;
54271;SDS011;40184;53.362;5.216;2023-04-29T06:18:57;11.23;;;4.68;;
54271;SDS011;40184;53.362;5.216;2023-04-29T06:21:23;12.80;;;5.20;;
54271;SDS011;40184;53.362;5.216;2023-04-29T06:23:48;15.93;;;6.03;;
54271;SDS011;40184;53.362;5.216;2023-04-29T06:26:14;15.65;;;5.72;;
54271;SDS011;40184;53.362;5.216;2023-04-29T06:28:40;17.50;;;5.32;;
54271;SDS011;40184;53.362;5.216;2023-04-29T06:31:07;13.70;;;4.35;;
54271;SDS011;40184;53.362;5.216;2023-04-29T06:33:32;14.20;;;5.10;;
54271;SDS011;40184;53.362;5.216;2023-04-29T06:35:58;12.57;;;5.20;;
54271;SDS011;40184;53.362;5.216;2023-04-29T06:38:24;13.48;;;6.22;;
54271;SDS011;40184;53.362;5.216;2023-04-29T06:40:50;13.05;;;5.40;;
54271;SDS011;40184;53.362;5.216;2023-04-29T06:43:15;10.15;;;5.18;;
54271;SDS011;40184;53.362;5.216;2023-04-29T06:45:44;11.43;;;5.40;;
54271;SDS011;40184;53.362;5.216;2023-04-29T06:48:10;17.55;;;6.03;;
54271;SDS011;40184;53.362;5.216;2023-04-29T06:50:36;11.20;;;5.80;;
54271;SDS011;40184;53.362;5.216;2023-04-29T06:53:02;17.42;;;5.95;;
54271;SDS011;40184;53.362;5.216;2023-04-29T06:55:27;19.50;;;5.78;;
54271;SDS011;40184;53.362;5.216;2023-04-29T06:57:53;11.07;;;5.50;;
54271;SDS011;40184;53.362;5.216;2023-04-29T07:00:19;11.20;;;4.80;;
54271;SDS011;40184;53.362;5.216;2023-04-29T07:02:46;23.00;;;6.22;;
54271;SDS011;40184;53.362;5.216;2023-04-29T07:05:12;14.82;;;4.90;;
54271;SDS011;40184;53.362;5.216;2023-04-29T07:07:38;17.00;;;5.13;;
54271;SDS011;40184;53.362;5.216;2023-04-29T07:10:03;18.33;;;5.80;;
54271;SDS011;40184;53.362;5.216;2023-04-29T07:12:30;11.40;;;4.78;;
54271;SDS011;40184;53.362;5.216;2023-04-29T07:14:55;16.55;;;4.90;;
54271;SDS011;40184;53.362;5.216;2023-04-29T07:17:22;13.38;;;4.53;;
54271;SDS011;40184;53.362;5.216;2023-04-29T07:19:47;13.48;;;4.40;;
54271;SDS011;40184;53.362;5.216;2023-04-29T07:22:13;15.15;;;5.40;;
54271;SDS011;40184;53.362;5.216;2023-04-29T07:24:39;20.15;;;5.93;;
54271;SDS011;40184;53.362;5.216;2023-04-29T07:27:05;11.90;;;4.38;;
54271;SDS011;40184;53.362;5.216;2023-04-29T07:29:31;16.48;;;4.45;;
54271;SDS011;40184;53.362;5.216;2023-04-29T07:31:57;12.10;;;3.97;;
54271;SDS011;40184;53.362;5.216;2023-04-29T07:34:23;18.90;;;4.45;;
54271;SDS011;40184;53.362;5.216;2023-04-29T07:36:48;15.32;;;4.43;;
54271;SDS011;40184;53.362;5.216;2023-04-29T07:39:14;12.98;;;4.20;;
54271;SDS011;40184;53.362;5.216;2023-04-29T07:41:40;13.82;;;3.63;;
54271;SDS011;40184;53.362;5.216;2023-04-29T07:44:06;15.35;;;4.55;;
54271;SDS011;40184;53.362;5.216;2023-04-29T07:46:31;11.18;;;3.20;;
54271;SDS011;40184;53.362;5.216;2023-04-29T07:48:57;18.45;;;5.03;;
54271;SDS011;40184;53.362;5.216;2023-04-29T07:51:23;9.10;;;3.90;;
54271;SDS011;40184;53.362;5.216;2023-04-29T07:53:48;12.95;;;4.13;;
54271;SDS011;40184;53.362;5.216;2023-04-29T07:56:14;11.73;;;3.63;;
54271;SDS011;40184;53.362;5.216;2023-04-29T07:58:40;15.55;;;4.30;;
54271;SDS011;40184;53.362;5.216;2023-04-29T08:01:09;12.35;;;3.20;;
54271;SDS011;40184;53.362;5.216;2023-04-29T08:03:36;9.40;;;3.53;;
54271;SDS011;40184;53.362;5.216;2023-04-29T08:06:02;6.05;;;2.50;;
54271;SDS011;40184;53.362;5.216;2023-04-29T08:08:29;12.25;;;4.57;;
54271;SDS011;40184;53.362;5.216;2023-04-29T08:10:56;8.93;;;3.00;;
54271;SDS011;40184;53.362;5.216;2023-04-29T08:13:21;7.93;;;3.22;;
54271;SDS011;40184;53.362;5.216;2023-04-29T08:15:47;9.10;;;3.10;;
54271;SDS011;40184;53.362;5.216;2023-04-29T08:18:13;11.15;;;3.42;;
54271;SDS011;40184;53.362;5.216;2023-04-29T08:20:38;9.10;;;3.45;;
54271;SDS011;40184;53.362;5.216;2023-04-29T08:23:04;13.55;;;3.47;;
54271;SDS011;40184;53.362;5.216;2023-04-29T08:25:30;11.52;;;4.20;;
54271;SDS011;40184;53.362;5.216;2023-04-29T08:27:55;9.55;;;3.60;;
54271;SDS011;40184;53.362;5.216;2023-04-29T08:30:21;8.88;;;3.85;;
54271;SDS011;40184;53.362;5.216;2023-04-29T08:32:47;6.55;;;3.13;;
54271;SDS011;40184;53.362;5.216;2023-04-29T08:35:13;12.05;;;3.20;;
54271;SDS011;40184;53.362;5.216;2023-04-29T08:37:39;17.88;;;3.92;;
54271;SDS011;40184;53.362;5.216;2023-04-29T08:40:04;12.18;;;4.10;;
54271;SDS011;40184;53.362;5.216;2023-04-29T08:42:35;9.30;;;3.83;;
54271;SDS011;40184;53.362;5.216;2023-04-29T08:45:04;12.35;;;3.33;;
54271;SDS011;40184;53.362;5.216;2023-04-29T08:47:31;12.20;;;3.38;;
54271;SDS011;40184;53.362;5.216;2023-04-29T08:50:00;14.30;;;3.50;;
54271;SDS011;40184;53.362;5.216;2023-04-29T08:52:30;11.57;;;4.55;;
54271;SDS011;40184;53.362;5.216;2023-04-29T08:54:57;6.78;;;3.78;;
54271;SDS011;40184;53.362;5.216;2023-04-29T08:57:27;10.02;;;2.90;;
54271;SDS011;40184;53.362;5.216;2023-04-29T08:59:55;6.90;;;3.13;;
54271;SDS011;40184;53.362;5.216;2023-04-29T09:02:23;11.77;;;3.00;;
54271;SDS011;40184;53.362;5.216;2023-04-29T09:04:55;11.70;;;3.30;;
54271;SDS011;40184;53.362;5.216;2023-04-29T09:07:30;14.25;;;4.38;;
54271;SDS011;40184;53.362;5.216;2023-04-29T09:09:57;6.60;;;2.65;;
54271;SDS011;40184;53.362;5.216;2023-04-29T09:12:23;9.98;;;2.33;;
54271;SDS011;40184;53.362;5.216;2023-04-29T09:14:49;10.93;;;2.60;;
54271;SDS011;40184;53.362;5.216;2023-04-29T09:17:15;8.77;;;1.85;;
54271;SDS011;40184;53.362;5.216;2023-04-29T09:19:41;9.10;;;2.58;;
54271;SDS011;40184;53.362;5.216;2023-04-29T09:22:08;7.05;;;2.08;;
54271;SDS011;40184;53.362;5.216;2023-04-29T09:24:35;4.93;;;1.80;;
54271;SDS011;40184;53.362;5.216;2023-04-29T09:27:02;6.22;;;3.28;;
54271;SDS011;40184;53.362;5.216;2023-04-29T09:29:28;6.82;;;1.75;;
54271;SDS011;40184;53.362;5.216;2023-04-29T09:31:56;6.07;;;2.20;;
54271;SDS011;40184;53.362;5.216;2023-04-29T09:34:32;8.00;;;1.83;;
54271;SDS011;40184;53.362;5.216;2023-04-29T09:37:02;6.55;;;1.73;;
54271;SDS011;40184;53.362;5.216;2023-04-29T09:39:36;4.65;;;1.30;;
54271;SDS011;40184;53.362;5.216;2023-04-29T09:42:03;7.60;;;2.30;;
54271;SDS011;40184;53.362;5.216;2023-04-29T09:44:31;7.78;;;2.28;;
54271;SDS011;40184;53.362;5.216;2023-04-29T09:52:06;6.10;;;1.90;;
54271;SDS011;40184;53.362;5.216;2023-04-29T09:57:02;8.60;;;2.20;;
54271;SDS011;40184;53.362;5.216;2023-04-29T09:59:30;8.70;;;2.05;;
54271;SDS011;40184;53.362;5.216;2023-04-29T10:01:57;12.90;;;2.40;;
54271;SDS011;40184;53.362;5.216;2023-04-29T10:04:24;10.68;;;2.70;;
54271;SDS011;40184;53.362;5.216;2023-04-29T10:06:54;9.85;;;2.33;;
54271;SDS011;40184;53.362;5.216;2023-04-29T10:09:21;7.80;;;2.80;;
54271;SDS011;40184;53.362;5.216;2023-04-29T10:11:49;11.70;;;3.08;;
54271;SDS011;40184;53.362;5.216;2023-04-29T10:14:22;7.20;;;2.60;;
54271;SDS011;40184;53.362;5.216;2023-04-29T10:19:43;7.50;;;2.15;;
54271;SDS011;40184;53.362;5.216;2023-04-29T10:22:18;8.30;;;2.65;;
54271;SDS011;40184;53.362;5.216;2023-04-29T10:24:52;8.35;;;2.17;;
54271;SDS011;40184;53.362;5.216;2023-04-29T10:27:19;14.63;;;3.50;;
54271;SDS011;40184;53.362;5.216;2023-04-29T10:29:47;6.68;;;2.47;;
54271;SDS011;40184;53.362;5.216;2023-04-29T10:32:13;6.35;;;2.97;;
54271;SDS011;40184;53.362;5.216;2023-04-29T10:34:40;6.03;;;2.38;;
54271;SDS011;40184;53.362;5.216;2023-04-29T10:37:07;4.70;;;1.88;;
54271;SDS011;40184;53.362;5.216;2023-04-29T10:39:38;7.85;;;1.90;;
54271;SDS011;40184;53.362;5.216;2023-04-29T10:45:20;6.55;;;1.50;;
54271;SDS011;40184;53.362;5.216;2023-04-29T10:50:34;5.70;;;1.70;;
54271;SDS011;40184;53.362;5.216;2023-04-29T10:53:09;6.80;;;1.50;;
54271;SDS011;40184;53.362;5.216;2023-04-29T10:55:35;3.00;;;1.05;;
54271;SDS011;40184;53.362;5.216;2023-04-29T10:58:02;4.10;;;1.20;;
54271;SDS011;40184;53.362;5.216;2023-04-29T11:00:29;6.65;;;1.80;;
54271;SDS011;40184;53.362;5.216;2023-04-29T11:02:59;9.38;;;1.30;;
54271;SDS011;40184;53.362;5.216;2023-04-29T11:08:11;3.03;;;0.95;;
54271;SDS011;40184;53.362;5.216;2023-04-29T11:10:39;3.55;;;1.48;;
54271;SDS011;40184;53.362;5.216;2023-04-29T11:13:25;8.73;;;2.13;;
54271;SDS011;40184;53.362;5.216;2023-04-29T11:16:10;5.22;;;1.42;;
54271;SDS011;40184;53.362;5.216;2023-04-29T11:21:27;5.63;;;1.88;;
54271;SDS011;40184;53.362;5.216;2023-04-29T11:23:53;7.68;;;1.73;;
54271;SDS011;40184;53.362;5.216;2023-04-29T11:26:19;6.57;;;2.15;;
54271;SDS011;40184;53.362;5.216;2023-04-29T11:28:45;4.88;;;1.65;;
54271;SDS011;40184;53.362;5.216;2023-04-29T11:31:12;11.70;;;2.53;;
54271;SDS011;40184;53.362;5.216;2023-04-29T11:33:38;4.60;;;1.85;;
54271;SDS011;40184;53.362;5.216;2023-04-29T11:36:03;6.45;;;2.22;;
54271;SDS011;40184;53.362;5.216;2023-04-29T11:38:29;9.00;;;2.17;;
54271;SDS011;40184;53.362;5.216;2023-04-29T11:40:56;4.55;;;1.95;;
54271;SDS011;40184;53.362;5.216;2023-04-29T11:43:22;8.85;;;2.25;;
54271;SDS011;40184;53.362;5.216;2023-04-29T11:45:49;6.93;;;2.47;;
54271;SDS011;40184;53.362;5.216;2023-04-29T11:48:16;7.30;;;2.30;;
54271;SDS011;40184;53.362;5.216;2023-04-29T11:50:47;15.63;;;3.17;;
54271;SDS011;40184;53.362;5.216;2023-04-29T11:53:15;5.88;;;1.52;;
54271;SDS011;40184;53.362;5.216;2023-04-29T11:55:44;7.38;;;2.45;;
54271;SDS011;40184;53.362;5.216;2023-04-29T11:58:10;5.75;;;2.10;;
54271;SDS011;40184;53.362;5.216;2023-04-29T12:00:36;4.00;;;2.08;;
54271;SDS011;40184;53.362;5.216;2023-04-29T12:03:23;8.60;;;2.75;;
54271;SDS011;40184;53.362;5.216;2023-04-29T12:05:52;6.63;;;2.25;;
54271;SDS011;40184;53.362;5.216;2023-04-29T12:08:19;9.63;;;2.03;;
54271;SDS011;40184;53.362;5.216;2023-04-29T12:10:48;7.65;;;2.63;;
54271;SDS011;40184;53.362;5.216;2023-04-29T12:13:15;8.30;;;2.05;;
54271;SDS011;40184;53.362;5.216;2023-04-29T12:15:42;4.10;;;2.00;;
54271;SDS011;40184;53.362;5.216;2023-04-29T12:18:09;4.53;;;2.85;;
54271;SDS011;40184;53.362;5.216;2023-04-29T12:20:35;5.22;;;2.65;;
54271;SDS011;40184;53.362;5.216;2023-04-29T12:23:12;6.68;;;2.90;;
54271;SDS011;40184;53.362;5.216;2023-04-29T12:25:39;6.80;;;3.17;;
54271;SDS011;40184;53.362;5.216;2023-04-29T12:28:12;6.20;;;2.70;;
54271;SDS011;40184;53.362;5.216;2023-04-29T12:30:38;6.72;;;3.00;;
54271;SDS011;40184;53.362;5.216;2023-04-29T12:33:06;8.60;;;3.38;;
54271;SDS011;40184;53.362;5.216;2023-04-29T12:35:33;7.75;;;2.95;;
54271;SDS011;40184;53.362;5.216;2023-04-29T12:37:59;7.15;;;2.72;;
54271;SDS011;40184;53.362;5.216;2023-04-29T12:40:25;6.82;;;2.83;;
54271;SDS011;40184;53.362;5.216;2023-04-29T12:42:54;6.10;;;3.10;;
54271;SDS011;40184;53.362;5.216;2023-04-29T12:45:29;5.35;;;3.10;;
54271;SDS011;40184;53.362;5.216;2023-04-29T12:47:56;8.48;;;3.08;;
54271;SDS011;40184;53.362;5.216;2023-04-29T12:50:32;8.32;;;3.33;;
54271;SDS011;40184;53.362;5.216;2023-04-29T12:53:00;8.30;;;3.42;;
54271;SDS011;40184;53.362;5.216;2023-04-29T12:55:28;7.82;;;3.05;;
54271;SDS011;40184;53.362;5.216;2023-04-29T12:57:53;7.45;;;3.65;;
54271;SDS011;40184;53.362;5.216;2023-04-29T13:00:19;16.25;;;3.83;;
54271;SDS011;40184;53.362;5.216;2023-04-29T13:02:45;9.18;;;3.75;;
54271;SDS011;40184;53.362;5.216;2023-04-29T13:05:12;7.63;;;3.80;;
54271;SDS011;40184;53.362;5.216;2023-04-29T13:07:37;13.27;;;4.10;;
54271;SDS011;40184;53.362;5.216;2023-04-29T13:10:04;10.77;;;4.18;;
54271;SDS011;40184;53.362;5.216;2023-04-29T13:12:31;11.68;;;4.40;;
54271;SDS011;40184;53.362;5.216;2023-04-29T13:14:57;8.95;;;4.22;;
54271;SDS011;40184;53.362;5.216;2023-04-29T13:17:22;8.50;;;3.92;;
54271;SDS011;40184;53.362;5.216;2023-04-29T13:19:48;13.77;;;5.47;;
54271;SDS011;40184;53.362;5.216;2023-04-29T13:22:15;8.32;;;3.55;;
54271;SDS011;40184;53.362;5.216;2023-04-29T13:24:40;10.85;;;3.53;;
54271;SDS011;40184;53.362;5.216;2023-04-29T13:27:06;14.15;;;4.40;;
54271;SDS011;40184;53.362;5.216;2023-04-29T13:29:32;13.88;;;3.50;;
54271;SDS011;40184;53.362;5.216;2023-04-29T13:31:57;7.03;;;3.40;;
54271;SDS011;40184;53.362;5.216;2023-04-29T13:34:23;7.78;;;3.17;;
54271;SDS011;40184;53.362;5.216;2023-04-29T13:36:48;6.70;;;2.80;;
54271;SDS011;40184;53.362;5.216;2023-04-29T13:39:14;5.70;;;2.33;;
54271;SDS011;40184;53.362;5.216;2023-04-29T13:41:41;9.55;;;2.95;;
54271;SDS011;40184;53.362;5.216;2023-04-29T13:44:07;8.57;;;3.20;;
54271;SDS011;40184;53.362;5.216;2023-04-29T13:46:32;8.75;;;2.85;;
54271;SDS011;40184;53.362;5.216;2023-04-29T13:48:58;7.50;;;2.97;;
54271;SDS011;40184;53.362;5.216;2023-04-29T13:51:24;11.48;;;2.97;;
54271;SDS011;40184;53.362;5.216;2023-04-29T13:53:50;5.80;;;3.05;;
54271;SDS011;40184;53.362;5.216;2023-04-29T13:56:15;6.72;;;2.55;;
54271;SDS011;40184;53.362;5.216;2023-04-29T13:58:41;10.55;;;2.92;;
54271;SDS011;40184;53.362;5.216;2023-04-29T14:01:07;10.38;;;2.25;;
54271;SDS011;40184;53.362;5.216;2023-04-29T14:03:33;17.60;;;3.20;;
54271;SDS011;40184;53.362;5.216;2023-04-29T14:05:58;6.40;;;2.60;;
54271;SDS011;40184;53.362;5.216;2023-04-29T14:08:25;8.68;;;3.22;;
54271;SDS011;40184;53.362;5.216;2023-04-29T14:10:50;11.18;;;3.72;;
54271;SDS011;40184;53.362;5.216;2023-04-29T14:13:16;14.23;;;4.63;;
54271;SDS011;40184;53.362;5.216;2023-04-29T14:15:42;5.85;;;3.42;;
54271;SDS011;40184;53.362;5.216;2023-04-29T14:18:08;8.98;;;3.80;;
54271;SDS011;40184;53.362;5.216;2023-04-29T14:20:35;8.48;;;3.38;;
54271;SDS011;40184;53.362;5.216;2023-04-29T14:23:01;19.05;;;3.90;;
54271;SDS011;40184;53.362;5.216;2023-04-29T14:25:27;9.38;;;2.67;;
54271;SDS011;40184;53.362;5.216;2023-04-29T14:27:53;9.52;;;2.58;;
54271;SDS011;40184;53.362;5.216;2023-04-29T14:30:19;9.65;;;3.88;;
54271;SDS011;40184;53.362;5.216;2023-04-29T14:32:44;11.25;;;3.05;;
54271;SDS011;40184;53.362;5.216;2023-04-29T14:35:10;8.15;;;2.75;;
54271;SDS011;40184;53.362;5.216;2023-04-29T14:37:36;10.13;;;3.53;;
54271;SDS011;40184;53.362;5.216;2023-04-29T14:40:02;13.25;;;3.97;;
54271;SDS011;40184;53.362;5.216;2023-04-29T14:42:28;10.80;;;4.25;;
54271;SDS011;40184;53.362;5.216;2023-04-29T14:44:54;7.22;;;2.67;;
54271;SDS011;40184;53.362;5.216;2023-04-29T14:47:20;8.00;;;2.63;;
54271;SDS011;40184;53.362;5.216;2023-04-29T14:49:45;8.20;;;3.83;;
54271;SDS011;40184;53.362;5.216;2023-04-29T14:52:11;8.38;;;3.15;;
54271;SDS011;40184;53.362;5.216;2023-04-29T14:54:37;11.93;;;2.78;;
54271;SDS011;40184;53.362;5.216;2023-04-29T14:57:02;10.77;;;4.32;;
54271;SDS011;40184;53.362;5.216;2023-04-29T14:59:28;8.68;;;3.40;;
54271;SDS011;40184;53.362;5.216;2023-04-29T15:01:57;9.98;;;3.65;;
54271;SDS011;40184;53.362;5.216;2023-04-29T15:04:23;11.23;;;3.63;;
54271;SDS011;40184;53.362;5.216;2023-04-29T15:06:48;11.85;;;4.45;;
54271;SDS011;40184;53.362;5.216;2023-04-29T15:09:14;9.27;;;3.80;;
54271;SDS011;40184;53.362;5.216;2023-04-29T15:11:40;5.68;;;2.83;;